Time;durP1;ratioP1;P1;durP2;ratioP2;P2;SDS_P1;SDS_P2;PMS_P1;PMS_P2;Temp;Humidity;BMP_temperature;BMP_pressure;BME280_temperature;BME280_humidity;BME280_pressure;Samples;Min_cycle;Max_cycle;Signal;HPM_P1;HPM_P2
2022/04/29 00:01:03;;;;;;;;;;;;;;;21.78;nan;95641.31;2056963;28;1670;-65
2022/04/29 00:02:11;;;;;;;;;;;;;;;21.77;nan;95639.66;2051103;28;1816;-65
2022/04/29 00:03:14;;;;;;;;;;;;;;;21.76;nan;95638.84;2056069;28;1057;-66
2022/04/29 00:04:15;;;;;;;;;;;;;;;21.76;nan;95643.38;2057767;28;1592;-66
2022/04/29 00:05:17;;;;;;;;;;;;;;;21.78;nan;95636.78;2057482;28;1668;-66
2022/04/29 00:06:25;;;;;;;;;;;;;;;21.82;nan;95639.88;2057212;28;1657;-66
2022/04/29 00:07:26;;;;;;;;;;;;;;;21.77;nan;95637.84;2070612;28;1195;-63
2022/04/29 00:08:28;;;;;;;;;;;;;;;21.82;nan;95637.22;2060028;28;1717;-65
2022/04/29 00:09:30;;;;;;;;;;;;;;;21.82;nan;95637.22;2045418;28;1326;-66
2022/04/29 00:10:32;;;;;;;;;;;;;;;21.83;nan;95636.19;2055290;28;1639;-64
2022/04/29 00:11:34;;;;;;;;;;;;;;;21.83;nan;95638.88;2056532;28;1273;-64
2022/04/29 00:12:35;;;;;;;;;;;;;;;21.83;nan;95636.19;2054001;28;1424;-63
2022/04/29 00:13:37;;;;;;;;;;;;;;;21.82;nan;95635.34;2060728;28;1507;-64
2022/04/29 00:14:39;;;;;;;;;;;;;;;21.82;nan;95637.22;2065056;28;1557;-67
2022/04/29 00:15:41;;;;;;;;;;;;;;;21.82;nan;95632.66;2065627;28;1101;-66
2022/04/29 00:16:42;;;;;;;;;;;;;;;21.84;nan;95635.16;2063772;28;1507;-65
2022/04/29 00:17:44;;;;;;;;;;;;;;;21.83;nan;95634.34;2057771;28;1662;-64
2022/04/29 00:18:46;;;;;;;;;;;;;;;21.83;nan;95636.19;2059691;28;1656;-63
2022/04/29 00:19:47;;;;;;;;;;;;;;;21.77;nan;95624.47;2053256;28;1911;-63
2022/04/29 00:20:49;;;;;;;;;;;;;;;21.81;nan;95630.22;2053209;28;1189;-63
2022/04/29 00:21:51;;;;;;;;;;;;;;;21.81;nan;95632.91;2055022;28;1313;-63
2022/04/29 00:22:53;;;;;;;;;;;;;;;21.81;nan;95636.38;2056523;28;1165;-63
2022/04/29 00:23:56;;;;;;;;;;;;;;;21.83;nan;95633.53;2057351;28;1619;-63
2022/04/29 00:24:57;;;;;;;;;;;;;;;21.82;nan;95631.84;2073165;28;978;-64
2022/04/29 00:25:59;;;;;;;;;;;;;;;21.82;nan;95638.03;2073234;28;1159;-64
2022/04/29 00:27:01;;;;;;;;;;;;;;;21.82;nan;95638.03;2059720;28;1475;-64
2022/04/29 00:28:03;;;;;;;;;;;;;;;21.82;nan;95629.19;2066050;28;1040;-64
2022/04/29 00:29:05;;;;;;;;;;;;;;;21.82;nan;95634.53;2057431;28;1649;-64
2022/04/29 00:30:08;;;;;;;;;;;;;;;21.82;nan;95629.19;2065963;28;1073;-66
2022/04/29 00:31:10;;;;;;;;;;;;;;;21.81;nan;95624.88;2061293;28;1381;-63
2022/04/29 00:32:12;;;;;;;;;;;;;;;21.81;nan;95630.22;2050686;28;1340;-63
2022/04/29 00:33:13;;;;;;;;;;;;;;;21.80;nan;95625.91;2057591;28;1117;-64
2022/04/29 00:34:15;;;;;;;;;;;;;;;21.80;nan;95629.41;2057790;28;1582;-64
2022/04/29 00:35:16;;;;;;;;;;;;;;;21.80;nan;95631.25;2058014;28;1018;-63
2022/04/29 00:36:19;;;;;;;;;;;;;;;21.80;nan;95631.25;2057979;28;1054;-63
2022/04/29 00:37:20;;;;;;;;;;;;;;;21.80;nan;95625.91;2060141;28;1734;-63
2022/04/29 00:38:22;;;;;;;;;;;;;;;21.79;nan;95633.09;2057268;28;1687;-63
2022/04/29 00:39:24;;;;;;;;;;;;;;;21.81;nan;95624.88;2063595;28;1981;-65
2022/04/29 00:40:29;;;;;;;;;;;;;;;21.80;nan;95629.41;2065870;28;926;-63
2022/04/29 00:41:31;;;;;;;;;;;;;;;21.80;nan;95633.94;2065293;28;1148;-62
2022/04/29 00:42:33;;;;;;;;;;;;;;;21.80;nan;95633.94;2048189;28;1397;-63
2022/04/29 00:43:34;;;;;;;;;;;;;;;21.80;nan;95628.59;2058685;28;1417;-62
2022/04/29 00:44:37;;;;;;;;;;;;;;;21.80;nan;95629.41;2064746;28;1110;-63
2022/04/29 00:45:39;;;;;;;;;;;;;;;21.80;nan;95632.06;2064921;28;1546;-65
2022/04/29 00:46:42;;;;;;;;;;;;;;;21.80;nan;95631.25;2065154;28;1471;-64
2022/04/29 00:47:44;;;;;;;;;;;;;;;21.78;nan;95630.63;2062167;28;1507;-63
2022/04/29 00:48:46;;;;;;;;;;;;;;;21.79;nan;95626.91;2058292;28;1426;-63
2022/04/29 00:49:48;;;;;;;;;;;;;;;21.79;nan;95627.72;2057804;28;1018;-64
2022/04/29 00:50:50;;;;;;;;;;;;;;;21.79;nan;95629.59;2057702;28;1605;-64
2022/04/29 00:51:51;;;;;;;;;;;;;;;21.79;nan;95621.56;2054591;28;1011;-63
2022/04/29 00:52:54;;;;;;;;;;;;;;;21.80;nan;95623.22;2055495;28;1629;-63
2022/04/29 00:53:57;;;;;;;;;;;;;;;21.78;nan;95631.44;2053277;28;1142;-62
2022/04/29 00:55:01;;;;;;;;;;;;;;;21.78;nan;95618.06;2053377;28;1459;-63
2022/04/29 00:56:03;;;;;;;;;;;;;;;21.78;nan;95619.94;2065291;28;1399;-63
2022/04/29 00:57:06;;;;;;;;;;;;;;;21.78;nan;95617.25;2054805;28;1636;-64
2022/04/29 00:58:12;;;;;;;;;;;;;;;21.78;nan;95618.06;2059078;28;1023;-63
2022/04/29 00:59:16;;;;;;;;;;;;;;;21.78;nan;95620.75;2058310;28;1608;-64
2022/04/29 01:00:18;;;;;;;;;;;;;;;21.79;nan;95617.03;2056914;28;1903;-63
2022/04/29 01:01:21;;;;;;;;;;;;;;;21.78;nan;95617.25;2059347;28;1031;-63
2022/04/29 01:02:23;;;;;;;;;;;;;;;21.79;nan;95616.22;2054134;28;1388;-63
2022/04/29 01:03:27;;;;;;;;;;;;;;;21.78;nan;95614.56;2066059;28;1310;-63
2022/04/29 01:04:32;;;;;;;;;;;;;;;21.78;nan;95614.56;2066258;28;1010;-67
2022/04/29 01:05:34;;;;;;;;;;;;;;;21.76;nan;95611.28;2051777;28;1674;-61
2022/04/29 01:06:36;;;;;;;;;;;;;;;21.78;nan;95610.03;2058014;28;1013;-65
2022/04/29 01:07:39;;;;;;;;;;;;;;;21.79;nan;95605.50;2057025;28;1443;-66
2022/04/29 01:08:40;;;;;;;;;;;;;;;21.80;nan;95607.19;2062425;28;1519;-65
2022/04/29 01:09:42;;;;;;;;;;;;;;;21.81;nan;95606.13;2059370;28;1058;-64
2022/04/29 01:10:45;;;;;;;;;;;;;;;21.82;nan;95610.47;2059206;28;1101;-64
2022/04/29 01:11:47;;;;;;;;;;;;;;;21.84;nan;95597.69;2056744;28;1863;-64
2022/04/29 01:12:50;;;;;;;;;;;;;;;21.86;nan;95598.34;2056537;28;1473;-64
2022/04/29 01:13:53;;;;;;;;;;;;;;;21.87;nan;95605.31;2058965;28;1665;-64
2022/04/29 01:14:55;;;;;;;;;;;;;;;21.87;nan;95599.97;2058551;28;1606;-64
2022/04/29 01:15:57;;;;;;;;;;;;;;;21.88;nan;95598.94;2059192;28;990;-64
2022/04/29 01:16:59;;;;;;;;;;;;;;;21.89;nan;95603.28;2061271;28;1690;-64
2022/04/29 01:18:02;;;;;;;;;;;;;;;21.88;nan;95597.09;2073460;28;1087;-64
2022/04/29 01:19:04;;;;;;;;;;;;;;;21.89;nan;95601.41;2059047;28;1596;-64
2022/04/29 01:20:10;;;;;;;;;;;;;;;21.91;nan;95603.91;2058955;28;1910;-64
2022/04/29 01:21:12;;;;;;;;;;;;;;;21.90;nan;95600.38;2059174;28;1057;-64
2022/04/29 01:22:14;;;;;;;;;;;;;;;21.91;nan;95598.53;2061395;28;1222;-64
2022/04/29 01:23:15;;;;;;;;;;;;;;;21.91;nan;95609.25;2065918;28;1252;-63
2022/04/29 01:24:17;;;;;;;;;;;;;;;21.92;nan;95602.84;2059018;28;1023;-64
2022/04/29 01:25:18;;;;;;;;;;;;;;;21.93;nan;95599.13;2059068;28;1109;-64
2022/04/29 01:26:20;;;;;;;;;;;;;;;21.92;nan;95596.69;2059066;28;1382;-64
2022/04/29 01:27:21;;;;;;;;;;;;;;;21.93;nan;95601.81;2062290;28;1488;-64
2022/04/29 01:28:24;;;;;;;;;;;;;;;21.92;nan;95605.53;2056591;28;1602;-63
2022/04/29 01:29:26;;;;;;;;;;;;;;;21.94;nan;95598.13;2058880;28;1204;-64
2022/04/29 01:30:28;;;;;;;;;;;;;;;21.95;nan;95598.94;2058903;28;998;-64
2022/04/29 01:31:29;;;;;;;;;;;;;;;21.95;nan;95601.63;2058995;28;1077;-64
2022/04/29 01:32:32;;;;;;;;;;;;;;;21.95;nan;95597.13;2054606;28;1314;-64
2022/04/29 01:33:34;;;;;;;;;;;;;;;21.95;nan;95599.81;2059130;28;1022;-63
2022/04/29 01:34:36;;;;;;;;;;;;;;;21.95;nan;95597.13;2058977;28;1296;-62
2022/04/29 01:35:37;;;;;;;;;;;;;;;21.95;nan;95598.94;2057894;28;1141;-64
2022/04/29 01:36:39;;;;;;;;;;;;;;;21.94;nan;95603.47;2058559;28;1116;-63
2022/04/29 01:37:42;;;;;;;;;;;;;;;21.92;nan;95596.69;2063514;28;1535;-62
2022/04/29 01:38:43;;;;;;;;;;;;;;;21.90;nan;95596.88;2063241;28;1563;-62
2022/04/29 01:39:45;;;;;;;;;;;;;;;21.89;nan;95596.06;2050003;28;1088;-62
2022/04/29 01:40:46;;;;;;;;;;;;;;;21.89;nan;95597.91;2058711;28;1907;-62
2022/04/29 01:41:48;;;;;;;;;;;;;;;21.89;nan;95596.06;2055988;28;1700;-63
2022/04/29 01:42:50;;;;;;;;;;;;;;;21.91;nan;95593.19;2058594;28;1584;-63
2022/04/29 01:43:51;;;;;;;;;;;;;;;21.91;nan;95598.53;2059046;28;1137;-62
2022/04/29 01:44:54;;;;;;;;;;;;;;;21.92;nan;95594.81;2058402;28;1161;-63
2022/04/29 01:45:55;;;;;;;;;;;;;;;21.92;nan;95597.50;2059077;28;832;-63
2022/04/29 01:46:57;;;;;;;;;;;;;;;21.91;nan;95595.88;2058161;28;1613;-63
2022/04/29 01:47:58;;;;;;;;;;;;;;;21.92;nan;95594.81;2066982;28;1093;-63
2022/04/29 01:49:00;;;;;;;;;;;;;;;21.92;nan;95597.50;2058076;28;1676;-63
2022/04/29 01:50:02;;;;;;;;;;;;;;;21.92;nan;95600.19;2058847;28;1094;-61
2022/04/29 01:51:06;;;;;;;;;;;;;;;21.92;nan;95597.50;2065633;28;1622;-63
2022/04/29 01:52:08;;;;;;;;;;;;;;;21.92;nan;95602.03;2064735;28;1503;-64
2022/04/29 01:53:10;;;;;;;;;;;;;;;21.91;nan;95598.53;2064989;28;1403;-65
2022/04/29 01:54:12;;;;;;;;;;;;;;;21.91;nan;95603.91;2058949;28;1073;-61
2022/04/29 01:55:13;;;;;;;;;;;;;;;21.92;nan;95594.81;2061859;28;1693;-61
2022/04/29 01:56:15;;;;;;;;;;;;;;;21.93;nan;95601.00;2063073;28;1651;-60
2022/04/29 01:57:16;;;;;;;;;;;;;;;21.93;nan;95603.69;2058964;28;1565;-61
2022/04/29 01:58:18;;;;;;;;;;;;;;;21.93;nan;95606.34;2065413;28;1613;-61
2022/04/29 01:59:20;;;;;;;;;;;;;;;21.93;nan;95601.00;2058292;28;959;-60
2022/04/29 02:00:21;;;;;;;;;;;;;;;21.93;nan;95601.00;2057949;28;1910;-60
2022/04/29 02:01:23;;;;;;;;;;;;;;;21.93;nan;95601.00;2058289;28;1201;-61
2022/04/29 02:02:25;;;;;;;;;;;;;;;21.96;nan;95606.78;2051570;28;1438;-65
2022/04/29 02:03:27;;;;;;;;;;;;;;;21.95;nan;95605.16;2058191;28;1171;-60
2022/04/29 02:04:29;;;;;;;;;;;;;;;21.94;nan;95606.16;2058938;28;1018;-60
2022/04/29 02:05:31;;;;;;;;;;;;;;;21.93;nan;95601.00;2058535;28;1050;-60
2022/04/29 02:06:34;;;;;;;;;;;;;;;21.91;nan;95603.91;2057861;28;1121;-60
2022/04/29 02:07:35;;;;;;;;;;;;;;;21.89;nan;95596.06;2056458;28;1477;-60
2022/04/29 02:08:37;;;;;;;;;;;;;;;21.90;nan;95600.38;2060198;28;1717;-60
2022/04/29 02:09:39;;;;;;;;;;;;;;;21.90;nan;95604.91;2065820;28;1590;-60
2022/04/29 02:10:40;;;;;;;;;;;;;;;21.89;nan;95600.59;2061224;28;1714;-60
2022/04/29 02:13:03;;;;;;;;;;;;;;;21.88;nan;95604.28;2057544;28;1375;-63
2022/04/29 02:14:05;;;;;;;;;;;;;;;21.89;nan;95606.75;2052902;28;1225;-65
2022/04/29 02:15:07;;;;;;;;;;;;;;;21.88;nan;95607.81;2058420;28;1200;-60
2022/04/29 02:16:09;;;;;;;;;;;;;;;21.88;nan;95607.81;2061314;28;1475;-60
2022/04/29 02:17:11;;;;;;;;;;;;;;;21.88;nan;95610.47;2061513;28;1683;-61
2022/04/29 02:18:12;;;;;;;;;;;;;;;21.88;nan;95609.63;2061458;28;1658;-60
2022/04/29 02:19:14;;;;;;;;;;;;;;;21.87;nan;95614.16;2058538;28;1444;-60
2022/04/29 02:20:16;;;;;;;;;;;;;;;21.88;nan;95612.31;2058531;28;1136;-63
2022/04/29 02:21:17;;;;;;;;;;;;;;;21.88;nan;95612.31;2058581;28;1902;-62
2022/04/29 02:22:19;;;;;;;;;;;;;;;21.88;nan;95609.63;2053528;28;1696;-60
2022/04/29 02:23:21;;;;;;;;;;;;;;;21.87;nan;95608.00;2058227;28;1601;-62
2022/04/29 02:24:22;;;;;;;;;;;;;;;21.87;nan;95608.81;2056005;28;1291;-62
2022/04/29 02:25:24;;;;;;;;;;;;;;;21.87;nan;95606.13;2051246;28;1147;-60
2022/04/29 02:26:25;;;;;;;;;;;;;;;21.88;nan;95609.63;2058436;28;1140;-60
2022/04/29 02:27:27;;;;;;;;;;;;;;;21.88;nan;95615.81;2059732;28;1542;-60
2022/04/29 02:28:30;;;;;;;;;;;;;;;21.88;nan;95609.63;2063815;28;1722;-60
2022/04/29 02:29:32;;;;;;;;;;;;;;;21.88;nan;95614.97;2050051;28;1105;-61
2022/04/29 02:30:33;;;;;;;;;;;;;;;21.87;nan;95610.66;2050672;28;1084;-60
2022/04/29 02:31:35;;;;;;;;;;;;;;;21.87;nan;95616.03;2049926;28;1094;-61
2022/04/29 02:32:37;;;;;;;;;;;;;;;21.86;nan;95615.19;2054100;28;1325;-59
2022/04/29 02:33:38;;;;;;;;;;;;;;;21.86;nan;95607.19;2058116;28;1253;-59
2022/04/29 02:34:41;;;;;;;;;;;;;;;21.87;nan;95613.34;2058392;28;1029;-59
2022/04/29 02:35:43;;;;;;;;;;;;;;;21.87;nan;95613.34;2056496;28;1027;-60
2022/04/29 02:36:45;;;;;;;;;;;;;;;21.85;nan;95610.88;2046498;28;1522;-59
2022/04/29 02:37:46;;;;;;;;;;;;;;;21.85;nan;95612.72;2063346;28;1348;-59
2022/04/29 02:38:48;;;;;;;;;;;;;;;21.85;nan;95618.06;2062217;28;1725;-60
2022/04/29 02:39:49;;;;;;;;;;;;;;;21.83;nan;95612.94;2058368;28;1160;-59
2022/04/29 02:40:51;;;;;;;;;;;;;;;21.83;nan;95615.63;2057650;28;1918;-60
2022/04/29 02:41:54;;;;;;;;;;;;;;;21.84;nan;95619.09;2054718;28;1716;-59
2022/04/29 02:42:56;;;;;;;;;;;;;;;21.84;nan;95611.09;2060693;28;1464;-59
2022/04/29 02:43:57;;;;;;;;;;;;;;;21.82;nan;95615.81;2058209;28;1008;-59
2022/04/29 02:44:59;;;;;;;;;;;;;;;21.83;nan;95614.78;2058422;28;1121;-59
2022/04/29 02:46:01;;;;;;;;;;;;;;;21.83;nan;95612.13;2058733;28;987;-59
2022/04/29 02:47:08;;;;;;;;;;;;;;;21.83;nan;95617.47;2057291;28;1090;-60
2022/04/29 02:48:10;;;;;;;;;;;;;;;21.86;nan;95619.72;2053597;28;1080;-60
2022/04/29 02:49:11;;;;;;;;;;;;;;;21.84;nan;95611.91;2058043;28;1618;-60
2022/04/29 02:50:13;;;;;;;;;;;;;;;21.86;nan;95611.72;2058259;28;1513;-62
2022/04/29 02:51:15;;;;;;;;;;;;;;;21.84;nan;95616.44;2056359;28;1474;-60
2022/04/29 02:52:17;;;;;;;;;;;;;;;21.84;nan;95619.09;2063072;28;1665;-60
2022/04/29 02:53:19;;;;;;;;;;;;;;;21.83;nan;95612.13;2073391;28;996;-59
2022/04/29 02:54:22;;;;;;;;;;;;;;;21.84;nan;95629.81;2056576;28;1489;-59
2022/04/29 02:55:23;;;;;;;;;;;;;;;21.83;nan;95620.16;2059912;28;1375;-61
2022/04/29 02:56:25;;;;;;;;;;;;;;;21.84;nan;95624.47;2065495;28;1527;-62
2022/04/29 02:57:27;;;;;;;;;;;;;;;21.82;nan;95619.28;2058289;28;1289;-59
2022/04/29 02:58:28;;;;;;;;;;;;;;;21.83;nan;95623.63;2055371;28;1649;-61
2022/04/29 02:59:30;;;;;;;;;;;;;;;21.83;nan;95617.47;2052012;28;1689;-65
2022/04/29 03:00:32;;;;;;;;;;;;;;;21.83;nan;95614.78;2057974;28;1241;-59
2022/04/29 03:01:33;;;;;;;;;;;;;;;21.82;nan;95619.28;2055468;28;1910;-62
2022/04/29 03:02:35;;;;;;;;;;;;;;;21.83;nan;95622.81;2054212;28;1110;-59
2022/04/29 03:03:38;;;;;;;;;;;;;;;19.75;nan;95626.44;2058224;28;1605;-60
2022/04/29 03:04:39;;;;;;;;;;;;;;;18.36;nan;95626.41;2058470;28;1117;-60
2022/04/29 03:05:41;;;;;;;;;;;;;;;17.74;nan;95624.81;2058505;28;1100;-58
2022/04/29 03:06:43;;;;;;;;;;;;;;;17.07;nan;95627.22;2057516;28;1117;-61
2022/04/29 03:07:45;;;;;;;;;;;;;;;16.49;nan;95626.63;2057785;28;1098;-59
2022/04/29 03:08:46;;;;;;;;;;;;;;;16.59;nan;95624.63;2059454;28;1510;-58
2022/04/29 03:09:48;;;;;;;;;;;;;;;16.91;nan;95630.81;2055478;28;1641;-59
2022/04/29 03:10:50;;;;;;;;;;;;;;;17.02;nan;95624.28;2051836;28;1470;-58
2022/04/29 03:11:51;;;;;;;;;;;;;;;16.67;nan;95621.94;2070085;28;1677;-58
2022/04/29 03:12:53;;;;;;;;;;;;;;;16.27;nan;95630.81;2069492;28;1570;-59
2022/04/29 03:13:54;;;;;;;;;;;;;;;16.29;nan;95628.84;2057469;28;1343;-58
2022/04/29 03:15:15;;;;;;;;;;;;;;;16.22;nan;95628.72;2057998;28;1656;-59
2022/04/29 03:16:17;;;;;;;;;;;;;;;16.01;nan;95631.88;2058817;28;1363;-60
2022/04/29 03:18:40;;;;;;;;;;;;;;;16.15;nan;95629.53;2057909;28;1505;-59
2022/04/29 03:19:41;;;;;;;;;;;;;;;16.08;nan;95632.03;2058362;28;1392;-60
2022/04/29 03:20:44;;;;;;;;;;;;;;;16.00;nan;95632.88;2057841;28;940;-59
2022/04/29 03:21:46;;;;;;;;;;;;;;;16.05;nan;95632.38;2050996;28;1910;-61
2022/04/29 03:22:47;;;;;;;;;;;;;;;16.12;nan;95627.22;2046226;28;1368;-58
2022/04/29 03:23:49;;;;;;;;;;;;;;;16.01;nan;95633.69;2049253;28;1156;-58
2022/04/29 03:24:51;;;;;;;;;;;;;;;16.00;nan;95626.75;2063639;28;1691;-59
2022/04/29 03:25:53;;;;;;;;;;;;;;;16.06;nan;95628.72;2072927;28;1696;-58
2022/04/29 03:26:55;;;;;;;;;;;;;;;15.98;nan;95631.38;2082034;28;1030;-58
2022/04/29 03:27:56;;;;;;;;;;;;;;;15.90;nan;95623.44;2073460;28;1164;-58
2022/04/29 03:28:58;;;;;;;;;;;;;;;15.81;nan;95636.69;2057592;28;1641;-58
2022/04/29 03:29:59;;;;;;;;;;;;;;;16.03;nan;95632.53;2058169;28;1164;-58
2022/04/29 03:31:06;;;;;;;;;;;;;;;15.94;nan;95632.72;2065641;28;1112;-59
2022/04/29 03:32:08;;;;;;;;;;;;;;;15.80;nan;95629.75;2061250;28;1121;-61
2022/04/29 03:33:11;;;;;;;;;;;;;;;15.82;nan;95637.50;2050895;28;1376;-63
2022/04/29 03:34:13;;;;;;;;;;;;;;;15.70;nan;95637.00;2055662;28;1483;-58
2022/04/29 03:35:15;;;;;;;;;;;;;;;15.62;nan;95632.53;2057537;28;1047;-58
2022/04/29 03:36:16;;;;;;;;;;;;;;;15.56;nan;95637.66;2049949;28;1007;-59
2022/04/29 03:37:18;;;;;;;;;;;;;;;15.68;nan;95636.34;2050482;28;1015;-60
2022/04/29 03:38:20;;;;;;;;;;;;;;;15.82;nan;95637.50;2064978;28;1192;-58
2022/04/29 03:39:21;;;;;;;;;;;;;;;15.48;nan;95627.06;2071904;28;1786;-58
2022/04/29 03:40:24;;;;;;;;;;;;;;;15.34;nan;95629.38;2058199;28;1667;-60
2022/04/29 03:41:26;;;;;;;;;;;;;;;15.27;nan;95633.66;2058170;28;1985;-58
2022/04/29 03:42:31;;;;;;;;;;;;;;;15.22;nan;95635.94;2053143;28;1699;-58
2022/04/29 03:43:33;;;;;;;;;;;;;;;15.13;nan;95643.06;2057387;28;1148;-58
2022/04/29 03:44:34;;;;;;;;;;;;;;;14.96;nan;95631.59;2051211;28;1179;-59
2022/04/29 03:45:36;;;;;;;;;;;;;;;16.02;nan;95635.38;2055827;28;1168;-59
2022/04/29 03:46:37;;;;;;;;;;;;;;;16.93;nan;95636.75;2057911;28;1014;-57
2022/04/29 03:47:39;;;;;;;;;;;;;;;16.45;nan;95638.59;2057892;28;1041;-59
2022/04/29 03:50:01;;;;;;;;;;;;;;;16.57;nan;95637.22;2057984;28;1161;-58
2022/04/29 03:51:04;;;;;;;;;;;;;;;16.44;nan;95632.44;2056874;28;1317;-58
2022/04/29 03:52:06;;;;;;;;;;;;;;;16.36;nan;95634.28;2054019;28;1000;-60
2022/04/29 03:53:07;;;;;;;;;;;;;;;16.29;nan;95634.97;2056507;28;1085;-58
2022/04/29 03:54:09;;;;;;;;;;;;;;;16.11;nan;95642.31;2049810;28;1030;-58
2022/04/29 03:55:11;;;;;;;;;;;;;;;16.15;nan;95648.09;2048254;29;1101;-59
2022/04/29 03:56:12;;;;;;;;;;;;;;;16.23;nan;95634.84;2050110;28;1320;-60
2022/04/29 03:57:14;;;;;;;;;;;;;;;16.10;nan;95643.28;2069283;28;1295;-58
2022/04/29 03:58:16;;;;;;;;;;;;;;;16.18;nan;95637.16;2064624;28;1032;-58
2022/04/29 03:59:17;;;;;;;;;;;;;;;16.05;nan;95643.00;2056120;28;1707;-60
2022/04/29 04:00:19;;;;;;;;;;;;;;;15.94;nan;95649.44;2057875;28;1728;-60
2022/04/29 04:01:21;;;;;;;;;;;;;;;15.91;nan;95652.44;2057731;28;1094;-58
2022/04/29 04:02:23;;;;;;;;;;;;;;;15.85;nan;95643.34;2051886;28;1907;-57
2022/04/29 04:03:24;;;;;;;;;;;;;;;15.81;nan;95651.75;2057713;28;1005;-61
2022/04/29 04:04:26;;;;;;;;;;;;;;;15.83;nan;95647.97;2057884;28;1094;-57
2022/04/29 04:05:30;;;;;;;;;;;;;;;15.84;nan;95651.44;2052282;28;1264;-59
2022/04/29 04:06:50;;;;;;;;;;;;;;;15.90;nan;95649.94;2059741;28;1647;-58
2022/04/29 04:07:52;;;;;;;;;;;;;;;16.08;nan;95653.25;2066235;28;1260;-59
2022/04/29 04:08:54;;;;;;;;;;;;;;;15.73;nan;95649.09;2062640;28;1672;-58
2022/04/29 04:09:55;;;;;;;;;;;;;;;15.68;nan;95656.69;2057750;28;1641;-58
2022/04/29 04:10:57;;;;;;;;;;;;;;;15.67;nan;95660.34;2057608;28;1664;-58
2022/04/29 04:11:59;;;;;;;;;;;;;;;16.27;nan;95652.88;2052585;28;1530;-58
2022/04/29 04:13:00;;;;;;;;;;;;;;;16.71;nan;95663.03;2047537;28;1371;-58
2022/04/29 04:14:02;;;;;;;;;;;;;;;16.97;nan;95654.00;2056490;28;1795;-58
2022/04/29 04:15:04;;;;;;;;;;;;;;;17.10;nan;95662.25;2055114;28;1666;-59
2022/04/29 04:16:06;;;;;;;;;;;;;;;17.24;nan;95660.66;2062159;28;1712;-59
2022/04/29 04:17:07;;;;;;;;;;;;;;;17.34;nan;95657.78;2063939;28;1492;-58
2022/04/29 04:18:09;;;;;;;;;;;;;;;17.42;nan;95661.22;2057024;28;1736;-63
2022/04/29 04:19:11;;;;;;;;;;;;;;;17.53;nan;95667.97;2060765;28;1612;-59
2022/04/29 04:20:13;;;;;;;;;;;;;;;17.57;nan;95660.47;2066267;28;1319;-58
2022/04/29 04:21:15;;;;;;;;;;;;;;;17.66;nan;95670.84;2066029;28;1030;-58
2022/04/29 04:22:17;;;;;;;;;;;;;;;17.71;nan;95666.84;2065641;28;1973;-58
2022/04/29 04:23:18;;;;;;;;;;;;;;;17.75;nan;95665.50;2060957;28;1674;-58
2022/04/29 04:24:20;;;;;;;;;;;;;;;17.76;nan;95667.19;2073603;28;1474;-58
2022/04/29 04:25:22;;;;;;;;;;;;;;;17.81;nan;95667.44;2073406;28;969;-58
2022/04/29 04:26:23;;;;;;;;;;;;;;;17.84;nan;95662.63;2057850;28;1064;-59
2022/04/29 04:27:25;;;;;;;;;;;;;;;17.89;nan;95667.38;2064682;28;1169;-58
2022/04/29 04:28:27;;;;;;;;;;;;;;;17.91;nan;95657.41;2064598;28;1121;-59
2022/04/29 04:29:28;;;;;;;;;;;;;;;17.98;nan;95662.81;2053798;28;969;-58
2022/04/29 04:30:30;;;;;;;;;;;;;;;17.99;nan;95670.63;2054305;28;1078;-61
2022/04/29 04:31:32;;;;;;;;;;;;;;;18.03;nan;95665.78;2067189;28;1258;-58
2022/04/29 04:32:34;;;;;;;;;;;;;;;18.06;nan;95671.56;2067029;28;1094;-58
2022/04/29 04:33:36;;;;;;;;;;;;;;;18.11;nan;95665.72;2059723;28;1056;-59
2022/04/29 04:34:50;;;;;;;;;;;;;;;18.11;nan;95660.41;2060061;28;879;-58
2022/04/29 04:35:51;;;;;;;;;;;;;;;18.13;nan;95670.88;2067308;28;1117;-58
2022/04/29 04:36:53;;;;;;;;;;;;;;;18.14;nan;95668.00;2067391;28;1026;-58
2022/04/29 04:37:55;;;;;;;;;;;;;;;18.16;nan;95667.84;2067098;28;1023;-58
2022/04/29 04:38:56;;;;;;;;;;;;;;;18.15;nan;95668.81;2067013;28;1021;-60
2022/04/29 04:39:58;;;;;;;;;;;;;;;18.12;nan;95669.19;2075392;28;1014;-57
2022/04/29 04:41:00;;;;;;;;;;;;;;;18.12;nan;95674.50;2070521;28;1374;-58
2022/04/29 04:42:01;;;;;;;;;;;;;;;18.14;nan;95672.50;2054820;28;1875;-59
2022/04/29 04:43:03;;;;;;;;;;;;;;;18.20;nan;95677.09;2059100;28;1090;-59
2022/04/29 04:44:05;;;;;;;;;;;;;;;18.22;nan;95673.25;2065988;28;1043;-59
2022/04/29 04:45:06;;;;;;;;;;;;;;;18.24;nan;95673.06;2066659;28;1086;-59
2022/04/29 04:46:09;;;;;;;;;;;;;;;18.25;nan;95669.41;2058907;28;1382;-58
2022/04/29 04:47:11;;;;;;;;;;;;;;;18.22;nan;95675.09;2059360;28;1160;-59
2022/04/29 04:48:12;;;;;;;;;;;;;;;18.22;nan;95669.78;2066348;28;824;-59
2022/04/29 04:49:15;;;;;;;;;;;;;;;18.23;nan;95672.25;2066218;28;1054;-59
2022/04/29 04:50:17;;;;;;;;;;;;;;;18.21;nan;95673.44;2059104;28;919;-58
2022/04/29 04:51:19;;;;;;;;;;;;;;;18.18;nan;95665.81;2058920;28;1039;-59
2022/04/29 04:52:21;;;;;;;;;;;;;;;18.16;nan;95659.88;2062111;28;1285;-58
2022/04/29 04:53:23;;;;;;;;;;;;;;;18.13;nan;95666.38;2061247;28;1124;-58
2022/04/29 04:54:25;;;;;;;;;;;;;;;18.13;nan;95660.22;2058934;28;1279;-59
2022/04/29 04:55:26;;;;;;;;;;;;;;;18.14;nan;95662.69;2059014;28;1053;-59
2022/04/29 04:56:28;;;;;;;;;;;;;;;18.17;nan;95667.66;2058863;28;1017;-58
2022/04/29 04:57:30;;;;;;;;;;;;;;;18.21;nan;95662.78;2059582;28;726;-58
2022/04/29 04:58:33;;;;;;;;;;;;;;;18.23;nan;95661.59;2059635;28;1134;-58
2022/04/29 04:59:35;;;;;;;;;;;;;;;18.25;nan;95658.78;2067105;28;1117;-58
2022/04/29 05:00:38;;;;;;;;;;;;;;;18.26;nan;95660.41;2067240;28;1029;-60
2022/04/29 05:01:40;;;;;;;;;;;;;;;18.30;nan;95665.19;2059664;28;994;-58
2022/04/29 05:02:42;;;;;;;;;;;;;;;18.32;nan;95663.19;2059838;28;1973;-58
2022/04/29 05:03:43;;;;;;;;;;;;;;;18.33;nan;95661.34;2062517;28;1007;-61
2022/04/29 05:04:45;;;;;;;;;;;;;;;18.37;nan;95657.31;2062006;28;1360;-58
2022/04/29 05:05:47;;;;;;;;;;;;;;;18.37;nan;95648.50;2059957;28;1058;-58
2022/04/29 05:06:49;;;;;;;;;;;;;;;18.42;nan;95654.13;2059519;28;1373;-58
2022/04/29 05:07:50;;;;;;;;;;;;;;;18.39;nan;95649.97;2059803;28;1118;-60
2022/04/29 05:08:52;;;;;;;;;;;;;;;18.38;nan;95652.81;2059541;28;986;-59
2022/04/29 05:09:53;;;;;;;;;;;;;;;18.35;nan;95647.84;2059495;28;1105;-59
2022/04/29 05:10:55;;;;;;;;;;;;;;;18.36;nan;95650.34;2060057;28;1031;-59
2022/04/29 05:11:57;;;;;;;;;;;;;;;18.37;nan;95657.31;2066134;28;1122;-58
2022/04/29 05:13:06;;;;;;;;;;;;;;;18.39;nan;95649.97;2065949;28;840;-60
2022/04/29 05:14:08;;;;;;;;;;;;;;;18.38;nan;95652.81;2058501;28;1202;-61
2022/04/29 05:15:10;;;;;;;;;;;;;;;18.37;nan;95652.00;2055073;28;1445;-59
2022/04/29 05:16:12;;;;;;;;;;;;;;;18.39;nan;95660.63;2054846;28;1200;-59
2022/04/29 05:17:14;;;;;;;;;;;;;;;18.37;nan;95652.00;2067181;28;1109;-59
2022/04/29 05:18:16;;;;;;;;;;;;;;;18.38;nan;95653.66;2066982;28;997;-59
2022/04/29 05:19:17;;;;;;;;;;;;;;;18.38;nan;95653.66;2059670;28;1033;-58
2022/04/29 05:20:19;;;;;;;;;;;;;;;18.39;nan;95652.63;2059526;28;1113;-59
2022/04/29 05:21:21;;;;;;;;;;;;;;;18.41;nan;95653.28;2067178;28;1098;-58
2022/04/29 05:22:22;;;;;;;;;;;;;;;18.43;nan;95655.75;2066468;28;1902;-58
2022/04/29 05:23:25;;;;;;;;;;;;;;;18.43;nan;95651.25;2067495;28;1156;-58
2022/04/29 05:24:27;;;;;;;;;;;;;;;18.43;nan;95661.91;2074667;28;1013;-59
2022/04/29 05:25:29;;;;;;;;;;;;;;;18.44;nan;95663.56;2059452;28;1164;-58
2022/04/29 05:26:30;;;;;;;;;;;;;;;18.44;nan;95660.91;2055239;28;1384;-59
2022/04/29 05:27:32;;;;;;;;;;;;;;;18.46;nan;95660.72;2054829;28;1086;-58
2022/04/29 05:28:34;;;;;;;;;;;;;;;18.48;nan;95662.19;2059659;28;1112;-58
2022/04/29 05:29:36;;;;;;;;;;;;;;;18.50;nan;95665.50;2059430;28;995;-58
2022/04/29 05:30:38;;;;;;;;;;;;;;;18.45;nan;95665.22;2059472;28;1011;-59
2022/04/29 05:31:40;;;;;;;;;;;;;;;18.45;nan;95667.06;2059715;28;856;-57
2022/04/29 05:32:42;;;;;;;;;;;;;;;18.40;nan;95666.78;2066859;28;1181;-58
2022/04/29 05:33:44;;;;;;;;;;;;;;;18.40;nan;95659.59;2066811;28;1002;-60
2022/04/29 05:34:46;;;;;;;;;;;;;;;18.40;nan;95661.44;2066469;28;1113;-58
2022/04/29 05:35:47;;;;;;;;;;;;;;;18.40;nan;95667.59;2066774;28;1029;-59
2022/04/29 05:36:49;;;;;;;;;;;;;;;18.42;nan;95664.75;2059777;28;1100;-58
2022/04/29 05:37:51;;;;;;;;;;;;;;;18.41;nan;95663.09;2054582;28;1243;-60
2022/04/29 05:42:53;;;;;;;;;;;;;;;18.49;nan;95660.34;2059248;28;1965;-61
2022/04/29 05:43:54;;;;;;;;;;;;;;;18.48;nan;95659.53;2066419;28;1173;-58
2022/04/29 05:44:56;;;;;;;;;;;;;;;18.48;nan;95659.53;2066761;28;1077;-58
2022/04/29 05:45:58;;;;;;;;;;;;;;;18.47;nan;95662.38;2059390;28;942;-58